Time;durP1;ratioP1;P1;durP2;ratioP2;P2;SDS_P1;SDS_P2;PMS_P1;PMS_P2;Temp;Humidity;BMP_temperature;BMP_pressure;BME280_temperature;BME280_humidity;BME280_pressure;Samples;Min_cycle;Max_cycle;Signal;HPM_P1;HPM_P2
2023/03/24 00:00:16;;;;;;;66.80;7.43;;;13.70;99.90;;;;;;5021148;28;20412;-81
2023/03/24 00:02:44;;;;;;;65.55;6.70;;;13.60;99.90;;;;;;5019305;28;20181;-83
2023/03/24 00:05:15;;;;;;;64.93;6.27;;;13.60;99.90;;;;;;5019491;28;20162;-82
2023/03/24 00:07:42;;;;;;;65.35;6.72;;;13.60;99.90;;;;;;5021068;28;20380;-83
2023/03/24 00:10:11;;;;;;;65.70;6.60;;;13.70;99.90;;;;;;5020464;28;20533;-83
2023/03/24 00:12:41;;;;;;;67.07;5.75;;;13.70;99.90;;;;;;5019932;28;20425;-83
2023/03/24 00:15:12;;;;;;;64.72;5.07;;;13.70;99.90;;;;;;5002589;28;20178;-83
2023/03/24 00:17:38;;;;;;;65.72;6.45;;;13.70;99.90;;;;;;5020948;28;20170;-83
2023/03/24 00:20:06;;;;;;;69.40;7.57;;;13.70;99.90;;;;;;5020011;28;20169;-83
2023/03/24 00:22:33;;;;;;;65.50;6.60;;;13.70;99.90;;;;;;5001633;28;20268;-83
2023/03/24 00:25:02;;;;;;;64.60;6.33;;;13.70;99.90;;;;;;5020230;28;20499;-83
2023/03/24 00:27:29;;;;;;;64.73;5.20;;;13.80;99.90;;;;;;5002255;28;20417;-83
2023/03/24 00:29:58;;;;;;;65.75;6.15;;;13.70;99.90;;;;;;5020813;28;20416;-83
2023/03/24 00:32:24;;;;;;;65.07;5.60;;;13.80;99.90;;;;;;5002658;28;20205;-83
2023/03/24 00:34:51;;;;;;;65.23;5.57;;;13.70;99.90;;;;;;5019849;28;20173;-83
2023/03/24 00:37:17;;;;;;;65.70;5.35;;;13.70;99.90;;;;;;5020149;28;20397;-83
2023/03/24 00:39:42;;;;;;;65.90;6.27;;;13.70;99.90;;;;;;5018867;28;20656;-83
2023/03/24 00:42:08;;;;;;;66.20;8.07;;;13.60;99.90;;;;;;5021790;28;20165;-83
2023/03/24 00:44:36;;;;;;;68.90;8.33;;;13.50;99.90;;;;;;5023980;28;20177;-83
2023/03/24 00:47:02;;;;;;;66.22;7.07;;;13.50;99.90;;;;;;5006679;28;20261;-83
2023/03/24 00:49:43;;;;;;;67.25;7.20;;;13.50;99.90;;;;;;5024114;28;20548;-83
2023/03/24 00:52:14;;;;;;;66.45;5.97;;;13.50;99.90;;;;;;5006010;28;20281;-83
2023/03/24 00:54:40;;;;;;;66.32;6.20;;;13.50;99.90;;;;;;5024119;28;20494;-83
2023/03/24 00:57:08;;;;;;;65.15;6.40;;;13.50;99.90;;;;;;5004524;28;20237;-83
2023/03/24 00:59:41;;;;;;;66.37;5.87;;;13.40;99.90;;;;;;5004018;28;20166;-83
2023/03/24 01:02:11;;;;;;;64.60;5.18;;;13.40;99.90;;;;;;5005943;28;20413;-84
2023/03/24 01:04:46;;;;;;;65.18;5.20;;;13.40;99.90;;;;;;5024426;28;20165;-83
2023/03/24 01:07:17;;;;;;;65.65;5.47;;;13.40;99.90;;;;;;5023345;28;20161;-83
2023/03/24 01:09:50;;;;;;;66.60;5.70;;;13.40;99.90;;;;;;5005476;28;20196;-83
2023/03/24 01:12:17;;;;;;;65.70;5.07;;;13.40;99.90;;;;;;5023190;28;20812;-83
2023/03/24 01:14:44;;;;;;;69.90;6.22;;;13.40;99.90;;;;;;5023195;28;20404;-83
2023/03/24 01:17:10;;;;;;;65.97;5.50;;;13.40;99.90;;;;;;5004907;28;20221;-83
2023/03/24 01:19:35;;;;;;;64.47;5.80;;;13.40;99.90;;;;;;5021093;28;20154;-83
2023/03/24 01:22:01;;;;;;;65.40;4.43;;;13.40;99.90;;;;;;5003465;28;20417;-83
2023/03/24 01:24:28;;;;;;;67.20;5.93;;;13.40;99.90;;;;;;5021670;28;20166;-83
2023/03/24 01:26:54;;;;;;;65.18;5.10;;;13.40;99.90;;;;;;5003873;28;20166;-83
2023/03/24 01:29:20;;;;;;;65.57;5.30;;;13.40;99.90;;;;;;5020736;28;20185;-83
2023/03/24 01:31:45;;;;;;;69.40;5.43;;;13.40;99.90;;;;;;5020716;28;20197;-83
2023/03/24 01:34:11;;;;;;;67.00;5.50;;;13.40;99.90;;;;;;5020580;28;20428;-83
2023/03/24 01:36:37;;;;;;;64.87;5.30;;;13.40;99.90;;;;;;5005107;28;20165;-83
2023/03/24 01:39:04;;;;;;;64.80;5.37;;;13.40;99.90;;;;;;5005185;28;20213;-83
2023/03/24 01:41:34;;;;;;;65.47;5.03;;;13.40;99.90;;;;;;5022322;28;20192;-83
2023/03/24 01:43:59;;;;;;;65.20;6.67;;;13.40;99.90;;;;;;5023234;28;20186;-84
2023/03/24 01:46:28;;;;;;;64.70;5.00;;;13.40;99.90;;;;;;5005180;28;20957;-83
2023/03/24 01:49:06;;;;;;;66.45;5.63;;;13.50;99.90;;;;;;5022187;28;20932;-83
2023/03/24 01:51:38;;;;;;;67.07;7.18;;;13.50;99.90;;;;;;5021265;28;20197;-83
2023/03/24 01:54:17;;;;;;;68.53;8.02;;;13.40;99.90;;;;;;5004331;28;20189;-83
2023/03/24 01:56:49;;;;;;;75.47;7.45;;;13.50;99.90;;;;;;5023008;28;20150;-83
2023/03/24 01:59:19;;;;;;;67.95;6.82;;;13.50;99.90;;;;;;5004556;28;20618;-83
2023/03/24 02:01:45;;;;;;;66.65;5.60;;;13.50;99.90;;;;;;5004750;28;20181;-83
2023/03/24 02:04:12;;;;;;;65.87;6.37;;;13.50;99.90;;;;;;5004571;28;20193;-83
2023/03/24 02:06:42;;;;;;;66.13;7.07;;;13.50;99.90;;;;;;5020036;28;20916;-83
2023/03/24 02:09:10;;;;;;;66.75;6.18;;;13.60;99.90;;;;;;5002552;28;20170;-83
2023/03/24 02:11:37;;;;;;;65.82;5.93;;;13.60;99.90;;;;;;5021674;28;20189;-83
2023/03/24 02:14:05;;;;;;;65.05;6.57;;;13.60;99.90;;;;;;5019679;28;20273;-83
2023/03/24 02:16:58;;;;;;;65.80;7.73;;;13.60;99.90;;;;;;5002491;28;20253;-83
2023/03/24 02:19:55;;;;;;;67.10;6.63;;;13.50;99.90;;;;;;5021320;28;20405;-83
2023/03/24 02:22:56;;;;;;;66.10;7.20;;;13.60;99.90;;;;;;5019720;28;20185;-83
2023/03/24 02:26:09;;;;;;;65.25;5.50;;;13.60;99.90;;;;;;5021850;28;20177;-83
2023/03/24 02:28:48;;;;;;;67.13;6.30;;;13.60;99.90;;;;;;5017603;28;20221;-83
2023/03/24 02:31:29;;;;;;;65.15;5.55;;;13.60;99.90;;;;;;5001860;28;20538;-84
2023/03/24 02:34:18;;;;;;;64.93;5.25;;;13.60;99.90;;;;;;5019462;28;20268;-83
2023/03/24 02:36:56;;;;;;;66.40;5.82;;;13.70;99.90;;;;;;5020435;28;20165;-83
2023/03/24 02:39:38;;;;;;;68.72;6.53;;;13.70;99.90;;;;;;5003859;28;20165;-83
2023/03/24 02:42:27;;;;;;;66.43;6.30;;;13.70;99.90;;;;;;5021635;28;20197;-84
2023/03/24 02:45:07;;;;;;;65.70;5.23;;;13.80;99.90;;;;;;5021262;28;20377;-84
2023/03/24 02:47:54;;;;;;;66.43;6.07;;;13.80;99.90;;;;;;5021043;28;20445;-83
2023/03/24 02:50:32;;;;;;;67.15;7.07;;;13.80;99.90;;;;;;5002752;28;20173;-83
2023/03/24 02:53:16;;;;;;;66.20;7.88;;;13.80;99.90;;;;;;5003800;28;20686;-83
2023/03/24 02:55:52;;;;;;;66.95;9.13;;;13.70;99.90;;;;;;5021549;28;20165;-83
2023/03/24 02:58:47;;;;;;;66.53;9.10;;;13.80;99.90;;;;;;5002838;28;20158;-84
2023/03/24 03:01:31;;;;;;;66.43;8.73;;;13.80;99.90;;;;;;5003062;28;20169;-84
2023/03/24 03:04:07;;;;;;;68.07;9.55;;;13.90;99.90;;;;;;5001304;28;20212;-83
2023/03/24 03:06:38;;;;;;;66.78;9.90;;;13.90;99.90;;;;;;5003805;28;20192;-83
2023/03/24 03:09:08;;;;;;;69.05;8.02;;;13.90;99.90;;;;;;5003405;28;20545;-83
2023/03/24 03:11:36;;;;;;;67.80;9.45;;;14.00;99.90;;;;;;5021092;28;20190;-83
2023/03/24 03:14:10;;;;;;;70.82;9.63;;;13.90;99.90;;;;;;5002805;28;20605;-83
2023/03/24 03:16:52;;;;;;;70.55;10.35;;;13.90;99.90;;;;;;5019482;28;20181;-84
2023/03/24 03:19:21;;;;;;;70.35;10.25;;;13.90;99.90;;;;;;5021977;28;20142;-83
2023/03/24 03:21:49;;;;;;;67.55;8.73;;;13.90;99.90;;;;;;5021534;28;20171;-84
2023/03/24 03:24:25;;;;;;;68.00;10.60;;;13.90;99.90;;;;;;5004413;28;20245;-83
2023/03/24 03:27:04;;;;;;;67.00;9.93;;;13.90;99.90;;;;;;5022648;28;20483;-84
2023/03/24 03:29:35;;;;;;;67.63;10.30;;;13.90;99.90;;;;;;5023358;28;20150;-83
2023/03/24 03:32:07;;;;;;;68.97;13.05;;;13.80;99.90;;;;;;5005478;28;20197;-83
2023/03/24 03:34:54;;;;;;;67.70;10.90;;;13.80;99.90;;;;;;5022355;28;20160;-83
2023/03/24 03:37:44;;;;;;;68.88;11.80;;;13.80;99.90;;;;;;5005171;28;20496;-84
2023/03/24 03:40:15;;;;;;;68.82;12.30;;;13.80;99.90;;;;;;5004260;28;20240;-84
2023/03/24 03:42:41;;;;;;;69.43;11.15;;;13.80;99.90;;;;;;5003961;28;20201;-83
2023/03/24 03:45:09;;;;;;;71.00;10.33;;;13.80;99.90;;;;;;5022043;28;20515;-83
2023/03/24 03:47:35;;;;;;;67.88;11.13;;;13.80;99.90;;;;;;5021149;28;20253;-84
2023/03/24 03:50:02;;;;;;;69.60;12.15;;;13.80;99.90;;;;;;5021223;28;20185;-84
2023/03/24 03:52:31;;;;;;;67.55;10.38;;;13.80;99.90;;;;;;5020403;28;20201;-83
2023/03/24 03:54:57;;;;;;;67.75;10.65;;;13.70;99.90;;;;;;5003580;28;20173;-84
2023/03/24 03:57:23;;;;;;;67.95;10.73;;;13.70;99.90;;;;;;5003587;28;20582;-84
2023/03/24 03:59:49;;;;;;;68.23;10.80;;;13.80;99.90;;;;;;5020918;28;20197;-83
2023/03/24 04:02:42;;;;;;;67.87;10.70;;;13.70;99.90;;;;;;5021262;28;20224;-83
2023/03/24 04:05:24;;;;;;;67.20;10.00;;;13.80;99.90;;;;;;5020964;28;20162;-83
2023/03/24 04:08:23;;;;;;;68.05;9.15;;;13.80;99.90;;;;;;5020230;28;20391;-83
2023/03/24 04:11:07;;;;;;;68.78;9.93;;;13.80;99.90;;;;;;5004505;28;20225;-83
2023/03/24 04:13:48;;;;;;;74.82;10.00;;;13.70;99.90;;;;;;5020448;28;20556;-83
2023/03/24 04:16:21;;;;;;;68.67;10.30;;;13.70;99.90;;;;;;5021694;28;20549;-83
2023/03/24 04:18:53;;;;;;;66.68;9.55;;;13.80;99.90;;;;;;5022930;28;20392;-84
2023/03/24 04:21:37;;;;;;;66.70;9.48;;;13.80;99.90;;;;;;5006573;28;20229;-83
2023/03/24 04:24:09;;;;;;;68.22;8.95;;;13.90;99.90;;;;;;5024553;28;20188;-83
2023/03/24 04:26:53;;;;;;;68.13;10.98;;;13.90;99.90;;;;;;5024138;28;20162;-84
2023/03/24 04:29:35;;;;;;;66.47;8.40;;;14.00;99.90;;;;;;5005837;28;20544;-83
2023/03/24 04:32:33;;;;;;;67.50;8.32;;;14.00;99.90;;;;;;5024336;28;20268;-83
2023/03/24 04:35:09;;;;;;;66.28;5.95;;;14.10;99.90;;;;;;5000992;28;20182;-83
2023/03/24 04:37:38;;;;;;;66.47;4.80;;;14.10;99.90;;;;;;5024513;28;20146;-83
2023/03/24 04:40:11;;;;;;;66.17;6.73;;;14.20;99.90;;;;;;5023747;28;20166;-83
2023/03/24 04:42:44;;;;;;;65.72;5.72;;;14.20;99.90;;;;;;5023701;28;20425;-83
2023/03/24 04:45:11;;;;;;;64.80;4.60;;;14.20;99.90;;;;;;5007039;28;20170;-83
2023/03/24 04:47:49;;;;;;;67.15;4.43;;;14.20;99.90;;;;;;5021689;28;20158;-83
2023/03/24 04:50:30;;;;;;;66.00;4.45;;;14.20;99.90;;;;;;5005300;28;20228;-82
2023/03/24 04:52:56;;;;;;;67.00;6.73;;;14.20;99.90;;;;;;5004078;28;20280;-84
2023/03/24 04:55:25;;;;;;;66.68;8.93;;;14.10;99.90;;;;;;5003630;28;20413;-84
2023/03/24 04:57:51;;;;;;;66.20;9.35;;;14.00;99.90;;;;;;5020750;28;20162;-83
2023/03/24 05:00:17;;;;;;;69.20;9.10;;;13.70;99.90;;;;;;5002473;28;20166;-82
2023/03/24 05:02:44;;;;;;;65.60;7.30;;;13.50;99.90;;;;;;5019436;28;20902;-82
2023/03/24 05:05:10;;;;;;;67.25;7.95;;;13.30;99.90;;;;;;5020005;28;20644;-83
2023/03/24 05:07:36;;;;;;;67.75;9.15;;;13.20;99.90;;;;;;5002450;28;20237;-82
2023/03/24 05:10:02;;;;;;;66.40;11.30;;;13.20;99.90;;;;;;5021482;28;20649;-82
2023/03/24 05:12:27;;;;;;;68.27;12.50;;;13.00;99.90;;;;;;5020335;28;20457;-83
2023/03/24 05:14:53;;;;;;;67.80;14.10;;;13.00;99.90;;;;;;5003141;28;20265;-84
2023/03/24 05:17:18;;;;;;;68.70;13.97;;;12.90;99.90;;;;;;5023165;28;20185;-83
2023/03/24 05:19:44;;;;;;;68.33;11.60;;;12.80;99.90;;;;;;5021531;28;20637;-84
2023/03/24 05:22:10;;;;;;;66.37;11.57;;;12.80;99.90;;;;;;5005521;28;20213;-84
2023/03/24 05:24:35;;;;;;;68.33;14.07;;;12.70;99.90;;;;;;5021321;28;20174;-84
2023/03/24 05:27:01;;;;;;;68.10;10.57;;;12.70;99.90;;;;;;5019497;28;20400;-83
2023/03/24 05:29:27;;;;;;;67.37;10.73;;;12.60;99.90;;;;;;5003675;28;20584;-83
2023/03/24 05:31:52;;;;;;;67.07;11.60;;;12.50;99.90;;;;;;5021207;28;20689;-84
2023/03/24 05:34:21;;;;;;;69.43;11.48;;;12.50;99.90;;;;;;5008010;28;20214;-84
2023/03/24 05:36:47;;;;;;;68.07;10.88;;;12.50;99.90;;;;;;5024736;28;20216;-84
2023/03/24 05:39:12;;;;;;;68.47;9.90;;;12.50;99.90;;;;;;5025370;28;20162;-84
2023/03/24 05:41:38;;;;;;;71.33;11.70;;;12.50;99.90;;;;;;5022241;28;20223;-84
2023/03/24 05:44:04;;;;;;;70.00;9.67;;;12.40;99.90;;;;;;5024230;28;20221;-83
2023/03/24 05:46:29;;;;;;;65.67;8.60;;;12.40;99.90;;;;;;5007242;28;20169;-83
2023/03/24 05:48:58;;;;;;;70.57;14.17;;;12.40;99.90;;;;;;5100648;23;20484;-84
2023/03/24 05:51:24;;;;;;;66.40;8.55;;;12.30;99.90;;;;;;5001705;28;20189;-83
2023/03/24 05:54:04;;;;;;;67.37;9.10;;;12.30;99.90;;;;;;5019147;28;20593;-84
2023/03/24 05:56:49;;;;;;;70.93;7.35;;;12.30;99.90;;;;;;5002050;28;20653;-84
2023/03/24 05:59:54;;;;;;;;;;;;;;;;;;;;;
2023/03/24 06:02:41;;;;;;;67.10;5.72;;;12.20;99.90;;;;;;5019226;28;20272;-83
2023/03/24 06:05:11;;;;;;;65.85;6.57;;;12.20;99.90;;;;;;5005632;28;20161;-84
2023/03/24 06:07:38;;;;;;;64.90;4.90;;;12.20;99.90;;;;;;5002015;28;20180;-84
2023/03/24 06:10:10;;;;;;;69.35;4.30;;;12.20;99.90;;;;;;5019707;28;20166;-83
2023/03/24 06:12:37;;;;;;;66.05;4.72;;;12.20;99.90;;;;;;5019352;28;20217;-83
2023/03/24 06:15:03;;;;;;;66.50;5.38;;;12.20;99.90;;;;;;5019398;28;20166;-84
2023/03/24 06:17:33;;;;;;;75.53;6.13;;;12.20;99.90;;;;;;5018458;28;20166;-84
2023/03/24 06:20:13;;;;;;;67.63;4.65;;;12.10;99.90;;;;;;5019332;28;20169;-83
2023/03/24 06:23:07;;;;;;;66.25;4.88;;;12.10;99.90;;;;;;5002619;28;20545;-83
2023/03/24 06:25:34;;;;;;;65.47;4.88;;;12.10;99.90;;;;;;5019130;28;20278;-83
2023/03/24 06:28:13;;;;;;;68.43;4.75;;;12.20;99.90;;;;;;5001853;28;20174;-83
2023/03/24 06:30:57;;;;;;;66.10;4.30;;;12.20;99.90;;;;;;5001537;28;20181;-83
2023/03/24 06:33:31;;;;;;;66.45;4.28;;;12.20;99.90;;;;;;5019390;28;20191;-83
2023/03/24 06:35:58;;;;;;;80.10;5.32;;;12.10;99.90;;;;;;5019273;28;20186;-83
2023/03/24 06:38:29;;;;;;;66.97;4.43;;;12.10;99.90;;;;;;5001535;28;20245;-84
2023/03/24 06:41:02;;;;;;;68.32;5.07;;;12.10;99.90;;;;;;5019446;28;20150;-83
2023/03/24 06:43:31;;;;;;;65.88;4.05;;;12.10;99.90;;;;;;5018973;28;20189;-83
2023/03/24 06:46:09;;;;;;;64.40;3.80;;;12.10;99.90;;;;;;5018906;28;20225;-83
2023/03/24 06:48:35;;;;;;;71.32;5.45;;;12.10;99.90;;;;;;5018605;28;20189;-83
2023/03/24 06:51:04;;;;;;;69.83;4.30;;;12.00;99.90;;;;;;5018412;28;20217;-82
2023/03/24 06:53:30;;;;;;;65.65;3.90;;;12.00;99.90;;;;;;5018297;28;20413;-83
2023/03/24 06:56:08;;;;;;;68.13;4.90;;;12.00;99.90;;;;;;5000201;28;20219;-82
2023/03/24 06:58:36;;;;;;;66.78;5.35;;;12.00;99.90;;;;;;5017854;28;20911;-81
2023/03/24 07:01:09;;;;;;;67.00;4.80;;;11.90;99.90;;;;;;5000281;28;20178;-80
2023/03/24 07:03:53;;;;;;;65.85;4.38;;;12.00;99.90;;;;;;5018322;28;20185;-80
2023/03/24 07:06:28;;;;;;;67.22;4.55;;;11.90;99.90;;;;;;5000590;28;20582;-80
2023/03/24 07:09:05;;;;;;;;;;;;;;;;;;;;;
2023/03/24 07:12:02;;;;;;;65.70;5.20;;;11.90;99.90;;;;;;5018173;28;20272;-81
2023/03/24 07:14:29;;;;;;;69.50;4.80;;;11.90;99.90;;;;;;4999958;28;20186;-80
2023/03/24 07:17:00;;;;;;;71.00;5.45;;;11.90;99.90;;;;;;5000560;28;20174;-80
2023/03/24 07:19:31;;;;;;;74.68;5.57;;;11.80;99.90;;;;;;5018303;28;20177;-80
2023/03/24 07:22:10;;;;;;;68.68;5.05;;;11.90;99.90;;;;;;5000887;28;20178;-80
2023/03/24 07:25:03;;;;;;;70.35;5.35;;;11.90;99.90;;;;;;5017707;28;20530;-80
2023/03/24 07:27:31;;;;;;;65.35;4.75;;;11.90;99.90;;;;;;5018234;28;20575;-81
2023/03/24 07:29:57;;;;;;;66.30;4.38;;;11.80;99.90;;;;;;5017690;28;20192;-80
2023/03/24 07:32:28;;;;;;;65.78;5.13;;;11.90;99.90;;;;;;5017695;28;20198;-80
2023/03/24 07:35:01;;;;;;;78.18;6.00;;;12.00;99.90;;;;;;5000133;28;20646;-81
2023/03/24 07:37:36;;;;;;;69.15;5.32;;;12.00;99.90;;;;;;5000267;28;20166;-80
2023/03/24 07:40:05;;;;;;;72.88;5.85;;;12.10;99.90;;;;;;5018086;28;20181;-80
2023/03/24 07:42:35;;;;;;;73.20;5.10;;;12.20;99.90;;;;;;4999413;28;20288;-80
2023/03/24 07:45:07;;;;;;;68.13;5.22;;;12.20;99.90;;;;;;4999862;28;20166;-81
2023/03/24 07:47:42;;;;;;;69.40;5.30;;;12.30;99.90;;;;;;5017639;28;20530;-80
2023/03/24 07:50:09;;;;;;;69.53;5.05;;;12.30;99.90;;;;;;5016679;28;20663;-81
2023/03/24 07:52:46;;;;;;;68.15;5.70;;;12.30;99.90;;;;;;5017143;28;20288;-80
2023/03/24 07:55:14;;;;;;;74.15;6.13;;;12.40;99.90;;;;;;4999653;28;20165;-80
2023/03/24 07:57:46;;;;;;;71.03;5.90;;;12.40;99.90;;;;;;4999584;28;20197;-80
2023/03/24 08:00:18;;;;;;;70.90;6.60;;;12.40;99.90;;;;;;5017189;28;20158;-81
2023/03/24 08:03:02;;;;;;;70.40;6.75;;;12.50;99.80;;;;;;4998696;28;20288;-80
2023/03/24 08:05:34;;;;;;;67.35;6.50;;;12.40;98.30;;;;;;4996571;28;20224;-80
2023/03/24 08:11:08;;;;;;;67.00;6.57;;;12.50;97.70;;;;;;5006744;28;20240;-82
2023/03/24 08:13:45;;;;;;;70.82;7.85;;;12.50;97.80;;;;;;5017401;28;20185;-82
2023/03/24 08:16:14;;;;;;;69.78;9.02;;;12.50;93.00;;;;;;5016693;28;20223;-82
2023/03/24 08:19:03;;;;;;;72.40;9.75;;;12.50;94.60;;;;;;4999961;28;20162;-82
2023/03/24 08:21:34;;;;;;;73.75;8.82;;;12.60;90.10;;;;;;5016979;28;20150;-82
2023/03/24 08:24:17;;;;;;;69.47;7.45;;;12.50;88.30;;;;;;5017080;28;20186;-83
2023/03/24 08:27:01;;;;;;;73.28;8.38;;;12.50;86.50;;;;;;5016705;28;20180;-83
2023/03/24 08:29:33;;;;;;;70.32;8.55;;;12.60;85.70;;;;;;4998835;28;20208;-82
2023/03/24 08:32:21;;;;;;;72.53;10.57;;;12.60;88.30;;;;;;5016863;28;20202;-82
2023/03/24 08:34:47;;;;;;;70.55;8.05;;;12.70;86.90;;;;;;5007707;28;20174;-83
2023/03/24 08:37:13;;;;;;;73.20;10.23;;;12.80;82.60;;;;;;5017233;28;20173;-83
2023/03/24 08:39:38;;;;;;;71.83;8.40;;;12.90;89.50;;;;;;5017706;28;20158;-83
2023/03/24 08:42:04;;;;;;;70.43;5.77;;;12.90;75.70;;;;;;5024765;23;20638;-83
2023/03/24 08:47:10;;;;;;;70.93;5.53;;;12.90;72.90;;;;;;5120849;23;20521;-80
2023/03/24 08:49:41;;;;;;;69.97;5.15;;;12.80;61.30;;;;;;4999282;28;20164;-81
2023/03/24 08:52:09;;;;;;;76.30;5.63;;;12.80;67.70;;;;;;5016586;28;20185;-81
2023/03/24 08:54:35;;;;;;;73.53;5.20;;;12.90;57.90;;;;;;4999959;28;20166;-81
2023/03/24 08:57:06;;;;;;;72.33;5.10;;;13.10;58.00;;;;;;4983670;28;20192;-81
2023/03/24 08:59:50;;;;;;;68.97;5.35;;;13.20;59.90;;;;;;5000144;28;20405;-80
2023/03/24 09:02:16;;;;;;;67.43;3.90;;;13.30;64.00;;;;;;5002381;28;20626;-80
2023/03/24 09:05:01;;;;;;;68.22;4.72;;;13.40;53.40;;;;;;5002842;28;20173;-81
2023/03/24 09:07:27;;;;;;;73.63;5.25;;;13.50;55.70;;;;;;5020386;28;20257;-81
2023/03/24 09:09:53;;;;;;;75.17;4.77;;;13.60;56.20;;;;;;5002960;28;20182;-81
2023/03/24 09:12:21;;;;;;;67.97;4.87;;;13.60;47.90;;;;;;5002918;28;20225;-82
2023/03/24 09:14:59;;;;;;;71.38;5.55;;;13.60;50.50;;;;;;5020289;28;20162;-83
2023/03/24 09:17:25;;;;;;;74.47;5.88;;;13.80;40.90;;;;;;5020816;28;20157;-83
2023/03/24 09:19:54;;;;;;;72.40;4.83;;;13.80;43.60;;;;;;5020709;28;20667;-83
2023/03/24 09:22:20;;;;;;;72.47;5.65;;;13.90;47.90;;;;;;5002410;28;20181;-82
2023/03/24 09:24:48;;;;;;;69.40;5.83;;;14.10;47.50;;;;;;4986434;28;20169;-83
2023/03/24 09:27:18;;;;;;;72.10;4.70;;;14.20;33.30;;;;;;5020092;28;20409;-83
2023/03/24 09:29:51;;;;;;;72.53;4.30;;;14.30;25.40;;;;;;5020001;28;20170;-83
2023/03/24 09:32:23;;;;;;;70.38;3.72;;;14.30;19.20;;;;;;5019927;28;20209;-82
2023/03/24 09:38:10;;;;;;;69.10;4.50;;;14.20;15.00;;;;;;5015610;28;20227;-80
2023/03/24 09:41:37;;;;;;;72.50;3.70;;;14.10;15.10;;;;;;5020517;28;20478;-81
2023/03/24 09:44:33;;;;;;;67.85;3.83;;;14.20;19.30;;;;;;4961148;28;20190;-80
2023/03/24 09:47:13;;;;;;;73.32;4.50;;;14.20;23.40;;;;;;5019571;28;20181;-80
2023/03/24 09:49:42;;;;;;;74.38;4.63;;;14.30;25.30;;;;;;5020008;28;20165;-80
2023/03/24 09:52:22;;;;;;;67.60;4.70;;;14.40;20.20;;;;;;5019197;28;20723;-80
2023/03/24 09:54:53;;;;;;;70.90;4.77;;;14.60;12.30;;;;;;5019958;28;20738;-80
2023/03/24 09:57:28;;;;;;;69.10;4.30;;;14.70;13.70;;;;;;5019978;28;20385;-81
2023/03/24 09:59:53;;;;;;;70.83;4.90;;;14.80;14.20;;;;;;5019458;28;20463;-81
2023/03/24 10:02:27;;;;;;;67.40;4.17;;;14.80;1.00;;;;;;5019786;28;20448;-80
2023/03/24 10:04:55;;;;;;;66.85;4.30;;;14.80;1.00;;;;;;5019376;28;20166;-81
2023/03/24 10:07:34;;;;;;;69.30;4.90;;;14.80;1.00;;;;;;5019665;28;20173;-80
2023/03/24 10:10:01;;;;;;;72.10;5.17;;;14.90;1.00;;;;;;5019173;28;20726;-80
2023/03/24 10:12:47;;;;;;;73.63;5.40;;;15.00;1.00;;;;;;5018164;28;20485;-80
2023/03/24 10:15:28;;;;;;;67.95;4.10;;;15.20;1.00;;;;;;5001358;28;20405;-80
2023/03/24 10:18:09;;;;;;;74.23;4.10;;;15.40;1.00;;;;;;5018855;28;20189;-80
2023/03/24 10:20:54;;;;;;;65.23;3.03;;;15.60;1.00;;;;;;5018913;28;20412;-80
2023/03/24 10:23:40;;;;;;;66.00;2.97;;;15.80;1.00;;;;;;5001026;28;20432;-81
2023/03/24 10:26:45;;;;;;;69.50;3.60;;;15.90;1.00;;;;;;5018784;28;20389;-80
2023/03/24 10:29:21;;;;;;;66.90;2.63;;;15.90;1.00;;;;;;5019054;28;20393;-80
2023/03/24 10:31:53;;;;;;;66.50;2.97;;;16.10;1.00;;;;;;5018735;28;20436;-80
2023/03/24 10:34:21;;;;;;;68.37;3.00;;;16.20;1.00;;;;;;5018539;28;20440;-80
2023/03/24 10:36:46;;;;;;;66.70;3.17;;;16.30;1.00;;;;;;5018803;28;20405;-80
2023/03/24 10:39:15;;;;;;;69.47;3.47;;;16.40;1.00;;;;;;5019462;28;20501;-80
2023/03/24 10:41:47;;;;;;;77.10;2.90;;;16.40;1.00;;;;;;5001143;28;20178;-81
2023/03/24 10:44:13;;;;;;;67.87;2.60;;;16.20;1.00;;;;;;5018616;28;20448;-81
2023/03/24 10:46:46;;;;;;;69.10;3.43;;;16.00;1.00;;;;;;5018311;28;20773;-81
2023/03/24 10:49:13;;;;;;;73.80;3.97;;;15.70;1.00;;;;;;5018940;28;20393;-81
2023/03/24 10:51:48;;;;;;;65.97;3.13;;;15.60;1.00;;;;;;5018554;28;20531;-80
2023/03/24 10:54:20;;;;;;;70.23;3.40;;;15.70;1.00;;;;;;5018022;28;20769;-80
2023/03/24 10:57:02;;;;;;;67.10;2.83;;;16.00;1.00;;;;;;5000642;28;20405;-80
2023/03/24 10:59:49;;;;;;;69.53;3.10;;;16.20;1.00;;;;;;5018403;28;20377;-80
2023/03/24 11:02:29;;;;;;;66.37;3.10;;;16.60;1.00;;;;;;5017850;28;20987;-80
2023/03/24 11:05:10;;;;;;;71.50;3.03;;;16.60;1.00;;;;;;5017496;28;20943;-80
2023/03/24 11:07:38;;;;;;;70.70;3.60;;;16.80;1.00;;;;;;5017865;28;20428;-80
2023/03/24 11:10:15;;;;;;;68.17;3.40;;;16.80;1.00;;;;;;5017607;28;20420;-80
2023/03/24 11:13:02;;;;;;;68.40;2.93;;;16.70;1.00;;;;;;5017794;28;20551;-81
2023/03/24 11:15:30;;;;;;;66.90;3.30;;;16.80;1.00;;;;;;5017599;28;20889;-80
2023/03/24 11:18:01;;;;;;;66.20;3.00;;;16.70;1.00;;;;;;5017677;28;20464;-80
2023/03/24 11:20:31;;;;;;;68.17;2.90;;;16.70;1.00;;;;;;5018058;28;20377;-80
2023/03/24 11:23:02;;;;;;;69.83;3.20;;;16.50;1.00;;;;;;5000620;28;20436;-80
2023/03/24 11:25:31;;;;;;;68.60;3.23;;;16.30;1.00;;;;;;5016602;28;20404;-80
2023/03/24 11:28:23;;;;;;;72.77;3.83;;;16.10;1.00;;;;;;4999579;28;20409;-80
2023/03/24 11:30:53;;;;;;;70.63;3.60;;;15.80;1.00;;;;;;5017853;28;20409;-80
2023/03/24 11:33:25;;;;;;;66.83;3.00;;;15.90;1.00;;;;;;5000275;28;20479;-80
2023/03/24 11:35:54;;;;;;;65.83;2.87;;;15.90;1.00;;;;;;5017603;28;20805;-80
2023/03/24 11:38:30;;;;;;;69.70;3.70;;;15.80;1.00;;;;;;5017304;28;20469;-80
2023/03/24 11:40:58;;;;;;;67.90;3.00;;;15.70;1.00;;;;;;5017401;28;20408;-80
2023/03/24 11:43:26;;;;;;;66.57;2.73;;;15.80;1.00;;;;;;4999933;28;21012;-80
2023/03/24 11:46:15;;;;;;;65.80;3.20;;;15.80;1.00;;;;;;5018054;28;20765;-80
2023/03/24 11:48:56;;;;;;;66.40;3.17;;;15.90;1.00;;;;;;5088254;23;20504;-86
2023/03/24 11:51:32;;;;;;;68.53;2.93;;;16.00;1.00;;;;;;5004888;28;20828;-86
2023/03/24 11:54:03;;;;;;;70.00;3.20;;;16.10;1.00;;;;;;5022327;28;20435;-86
2023/03/24 11:56:34;;;;;;;67.53;3.37;;;16.10;1.00;;;;;;5023717;28;20719;-86
2023/03/24 11:59:28;;;;;;;65.43;2.60;;;15.90;1.00;;;;;;5023629;28;20417;-86
2023/03/24 12:02:06;;;;;;;65.90;2.50;;;15.80;1.00;;;;;;5021133;28;20424;-86
2023/03/24 12:04:50;;;;;;;65.80;3.10;;;15.80;1.00;;;;;;5023230;28;20737;-86
2023/03/24 12:07:48;;;;;;;71.10;3.10;;;15.70;1.00;;;;;;5005189;28;20448;-86
2023/03/24 12:10:32;;;;;;;69.93;3.60;;;15.70;1.00;;;;;;5021743;28;20389;-86
2023/03/24 12:13:36;;;;;;;70.30;2.83;;;15.80;1.00;;;;;;5005808;28;20464;-85
2023/03/24 12:16:36;;;;;;;69.33;3.00;;;16.00;1.00;;;;;;5022154;28;20436;-86
2023/03/24 12:19:31;;;;;;;68.00;3.20;;;16.10;1.00;;;;;;5024475;28;20385;-86
2023/03/24 12:22:15;;;;;;;69.67;2.83;;;16.20;1.00;;;;;;5014783;28;20559;-85
2023/03/24 12:25:04;;;;;;;69.90;3.00;;;16.20;1.00;;;;;;5008001;28;20381;-86
2023/03/24 12:27:55;;;;;;;66.17;2.30;;;16.40;1.00;;;;;;5024979;28;20391;-86
2023/03/24 12:30:27;;;;;;;66.23;2.87;;;16.60;1.00;;;;;;5008367;28;20393;-87
2023/03/24 12:33:19;;;;;;;66.53;2.20;;;16.60;1.00;;;;;;5008599;28;20456;-86
2023/03/24 12:35:44;;;;;;;68.30;2.50;;;16.80;1.00;;;;;;5007753;28;20432;-86
2023/03/24 12:38:19;;;;;;;68.03;2.73;;;16.80;1.00;;;;;;5028885;28;20404;-85
2023/03/24 12:41:06;;;;;;;74.70;2.80;;;16.70;1.00;;;;;;5011499;28;20521;-86
2023/03/24 12:43:59;;;;;;;68.00;2.70;;;16.60;1.00;;;;;;5011138;28;20432;-86
2023/03/24 12:46:34;;;;;;;71.27;2.70;;;16.40;1.00;;;;;;5011174;28;20855;-86
2023/03/24 12:49:47;;;;;;;66.70;2.80;;;16.20;1.00;;;;;;5011344;28;20470;-86
2023/03/24 12:53:06;;;;;;;69.00;3.17;;;16.10;1.00;;;;;;4987699;28;20484;-86
2023/03/24 12:55:56;;;;;;;73.13;3.03;;;16.10;1.00;;;;;;4975603;28;20494;-86
2023/03/24 12:58:28;;;;;;;66.73;2.33;;;16.10;1.00;;;;;;5011341;28;20416;-86
2023/03/24 13:00:57;;;;;;;67.27;2.73;;;16.20;1.00;;;;;;5010535;28;20413;-86
2023/03/24 13:03:35;;;;;;;68.10;2.40;;;16.20;1.00;;;;;;5028675;28;20423;-86
2023/03/24 13:06:19;;;;;;;70.63;2.77;;;16.20;1.00;;;;;;5027640;28;20403;-85
2023/03/24 13:08:57;;;;;;;67.17;3.10;;;16.30;1.00;;;;;;5029126;28;20389;-86
2023/03/24 13:11:32;;;;;;;66.50;2.87;;;16.40;1.00;;;;;;5011139;28;20437;-86
2023/03/24 13:14:02;;;;;;;66.90;3.40;;;16.40;1.00;;;;;;5028651;28;20428;-86
2023/03/24 13:16:33;;;;;;;71.07;3.97;;;16.40;1.00;;;;;;5028633;28;20947;-86
2023/03/24 13:19:01;;;;;;;68.00;3.13;;;16.40;1.00;;;;;;5028298;28;20435;-86
2023/03/24 13:21:28;;;;;;;71.87;2.97;;;16.40;1.00;;;;;;5027837;28;20408;-86
2023/03/24 13:23:57;;;;;;;67.33;3.30;;;16.40;1.00;;;;;;5028494;28;20486;-86
2023/03/24 13:26:41;;;;;;;67.80;2.63;;;16.50;1.00;;;;;;5028308;28;20413;-86